Terminal Aerodrome Forecast
Issued by NWS

Home | Current Version | Previous Version | Text Only | Print | Product List | Glossary On
Versions: 1 2 3 4 5 6 7 8 9 10 11 12 13 14 15 16 17 18 19 20 21 22 23 24 25 26 27 28 29 30 31 32
000
FTUS45 KBOI 191736
TAFJER
TAF
KJER 191736Z 1918/2018 24010KT P6SM -RASN BKN015 OVC025
     FM192000 25012G25KT P6SM VCSH SCT025 BKN050
     FM200300 23011KT P6SM BKN100
     FM201500 25012G20KT P6SM SCT100=

USA.gov is the U.S. government's official web portal to all federal, state and local government web resources and services.